Time;durP1;ratioP1;P1;durP2;ratioP2;P2;SDS_P1;SDS_P2;PMS_P1;PMS_P2;Temp;Humidity;BMP_temperature;BMP_pressure;BME280_temperature;BME280_humidity;BME280_pressure;Samples;Min_cycle;Max_cycle;Signal;HPM_P1;HPM_P2
2023/04/10 00:00:23;;;;;;;6.97;3.40;;;;;;;17.11;37.54;101912.97;4936397;28;20579;-64
2023/04/10 00:02:49;;;;;;;6.72;3.20;;;;;;;17.09;36.62;101917.66;4952027;28;20043;-64
2023/04/10 00:05:15;;;;;;;7.78;3.35;;;;;;;17.11;37.31;101913.84;4952723;28;20050;-65
2023/04/10 00:07:41;;;;;;;7.13;3.50;;;;;;;17.08;37.37;101902.44;4968337;28;20039;-65
2023/04/10 00:10:06;;;;;;;7.65;3.40;;;;;;;17.08;36.49;101902.44;4952729;28;20027;-65
2023/04/10 00:12:32;;;;;;;5.75;3.08;;;;;;;17.05;36.20;101898.16;4969135;28;20050;-64
2023/04/10 00:14:58;;;;;;;5.18;3.20;;;;;;;17.07;36.61;101903.41;4936525;28;20495;-65
2023/04/10 00:17:23;;;;;;;5.50;3.33;;;;;;;17.04;36.13;101901.00;4951862;28;20036;-65
2023/04/10 00:19:48;;;;;;;7.65;4.03;;;;;;;17.00;37.19;101896.88;4967699;28;20038;-65
2023/04/10 00:22:14;;;;;;;6.70;3.33;;;;;;;16.97;36.58;101894.47;4952080;28;20031;-65
2023/04/10 00:24:39;;;;;;;6.18;3.85;;;;;;;16.93;36.41;101888.47;4952641;29;20035;-64
2023/04/10 00:27:05;;;;;;;4.90;2.70;;;;;;;16.88;36.52;101886.22;4951883;28;20036;-65
2023/04/10 00:29:30;;;;;;;6.03;3.30;;;;;;;16.84;36.92;101863.13;4935714;28;20054;-65
2023/04/10 00:31:56;;;;;;;5.32;2.95;;;;;;;16.81;37.74;101858.00;4951885;28;20114;-65
2023/04/10 00:34:23;;;;;;;7.40;3.75;;;;;;;16.78;36.21;101847.47;4951689;28;20379;-65
2023/04/10 00:36:48;;;;;;;9.60;3.33;;;;;;;16.77;37.94;101851.19;4951465;28;20035;-64
2023/04/10 00:39:13;;;;;;;5.20;2.95;;;;;;;16.75;36.98;101864.00;4953108;28;20042;-65
2023/04/10 00:41:39;;;;;;;5.38;3.35;;;;;;;16.71;37.05;101846.34;4919591;28;20039;-65
2023/04/10 00:44:04;;;;;;;5.45;2.75;;;;;;;16.67;36.73;101839.50;4935557;28;20046;-65
2023/04/10 00:46:30;;;;;;;6.82;3.45;;;;;;;16.63;37.12;101843.50;4951530;28;20572;-64
2023/04/10 00:48:56;;;;;;;6.82;3.08;;;;;;;16.61;36.43;101839.25;4935466;28;20114;-64
2023/04/10 00:51:21;;;;;;;5.35;3.33;;;;;;;16.56;38.16;101831.53;4920160;28;20089;-65
2023/04/10 00:53:49;;;;;;;6.53;3.42;;;;;;;16.54;38.15;101833.53;4951334;28;20036;-65
2023/04/10 00:56:15;;;;;;;6.30;3.33;;;;;;;16.51;37.11;101825.69;4951540;28;20444;-64
2023/04/10 00:58:41;;;;;;;7.10;3.97;;;;;;;16.48;37.63;101823.25;4951933;28;20134;-64
2023/04/10 01:01:07;;;;;;;5.25;3.33;;;;;;;16.46;37.88;101824.41;4920190;28;20031;-64
2023/04/10 01:03:33;;;;;;;6.40;3.40;;;;;;;16.43;37.00;101822.84;4951534;29;20236;-64
2023/04/10 01:06:11;;;;;;;5.97;2.95;;;;;;;16.41;36.98;101821.28;4935228;28;20043;-64
2023/04/10 01:08:57;;;;;;;4.88;3.28;;;;;;;16.37;37.26;101812.59;4935213;28;20046;-65
2023/04/10 01:11:48;;;;;;;5.82;3.30;;;;;;;16.32;38.35;101812.16;4967069;28;20034;-64
2023/04/10 01:14:49;;;;;;;5.05;3.05;;;;;;;16.30;37.91;101809.59;4967028;28;20040;-65
2023/04/10 01:17:21;;;;;;;5.72;3.35;;;;;;;16.27;38.28;101809.03;4966141;28;20047;-65
2023/04/10 01:20:07;;;;;;;4.35;2.83;;;;;;;16.23;36.74;101804.91;4934963;28;20101;-64
2023/04/10 01:23:09;;;;;;;5.72;3.50;;;;;;;16.19;37.41;101798.91;4934963;28;20039;-64
2023/04/10 01:25:55;;;;;;;5.22;2.92;;;;;;;16.12;37.18;101792.38;4952261;28;20411;-64
2023/04/10 01:28:30;;;;;;;5.10;3.08;;;;;;;16.09;37.10;101799.91;4934769;28;20181;-64
2023/04/10 01:30:57;;;;;;;4.07;2.60;;;;;;;16.06;37.14;101800.19;4965804;28;20157;-64
2023/04/10 01:33:26;;;;;;;3.92;2.67;;;;;;;16.02;38.28;101794.22;4951212;29;20059;-64
2023/04/10 01:35:54;;;;;;;5.65;3.10;;;;;;;15.99;38.29;101796.34;4952036;28;20448;-64
2023/04/10 01:38:20;;;;;;;5.38;2.92;;;;;;;15.96;38.30;101799.34;4950784;28;20067;-64
2023/04/10 01:40:50;;;;;;;5.10;3.40;;;;;;;15.91;38.47;101804.31;4934602;29;20040;-64
2023/04/10 01:43:16;;;;;;;6.35;2.80;;;;;;;15.86;38.67;101810.09;4951871;28;20028;-64
2023/04/10 01:45:42;;;;;;;5.80;3.13;;;;;;;15.82;37.65;101811.41;4934764;28;20045;-64
2023/04/10 01:48:09;;;;;;;6.93;3.33;;;;;;;15.78;38.00;101803.69;4951085;28;20106;-64
2023/04/10 01:50:35;;;;;;;4.80;2.92;;;;;;;15.77;37.50;101810.97;4934715;28;20036;-63
2023/04/10 01:53:03;;;;;;;5.68;2.90;;;;;;;15.73;37.22;101804.97;4919177;29;20047;-64
2023/04/10 01:55:30;;;;;;;7.15;3.00;;;;;;;15.68;38.86;101804.53;4934907;28;20039;-64
2023/04/10 01:57:56;;;;;;;4.90;2.90;;;;;;;15.64;37.33;101804.94;4950475;28;20023;-64
2023/04/10 02:00:21;;;;;;;5.22;3.10;;;;;;;15.58;37.92;101806.34;4950610;28;20465;-64
2023/04/10 02:02:47;;;;;;;10.57;2.63;;;;;;;15.56;37.29;101802.94;4934618;28;20074;-64
2023/04/10 02:05:14;;;;;;;6.00;3.13;;;;;;;15.52;37.88;101801.47;4950698;28;20062;-65
2023/04/10 02:07:56;;;;;;;7.40;3.28;;;;;;;15.47;39.08;101798.34;4950646;28;20515;-64
2023/04/10 02:10:34;;;;;;;7.23;3.57;;;;;;;15.41;37.69;101790.75;4934833;28;20138;-65
2023/04/10 02:13:04;;;;;;;7.47;3.10;;;;;;;15.35;39.00;101783.22;4966639;28;20274;-65
2023/04/10 02:15:31;;;;;;;4.85;2.65;;;;;;;15.34;38.53;101788.75;4950877;29;20023;-65
2023/04/10 02:17:57;;;;;;;5.07;2.95;;;;;;;15.30;38.87;101780.06;4950403;28;20040;-64
2023/04/10 02:20:23;;;;;;;6.65;3.00;;;;;;;15.26;38.81;101775.94;4950621;28;20032;-64
2023/04/10 02:22:49;;;;;;;6.10;3.20;;;;;;;15.25;39.07;101776.91;4951334;28;20089;-64
2023/04/10 02:25:15;;;;;;;4.97;2.58;;;;;;;15.22;39.12;101774.50;4935065;28;20084;-64
2023/04/10 02:27:40;;;;;;;4.70;3.08;;;;;;;15.20;39.13;101772.91;4951358;28;20031;-64
2023/04/10 02:30:06;;;;;;;6.97;3.38;;;;;;;15.16;38.54;101766.94;4953898;28;20073;-65
2023/04/10 02:32:32;;;;;;;5.32;2.92;;;;;;;15.13;38.08;101773.47;4937863;28;20625;-64
2023/04/10 02:34:58;;;;;;;5.65;3.20;;;;;;;15.11;38.00;101763.78;4953772;28;20433;-64
2023/04/10 02:37:23;;;;;;;5.93;3.22;;;;;;;15.09;37.87;101755.84;4953671;28;20118;-64
2023/04/10 02:39:49;;;;;;;4.40;2.60;;;;;;;15.08;38.06;101758.66;4953370;28;20023;-64
2023/04/10 02:42:15;;;;;;;4.40;2.25;;;;;;;15.06;38.91;101755.25;4953598;28;20036;-64
2023/04/10 02:44:40;;;;;;;5.32;3.03;;;;;;;15.04;39.15;101751.84;4953140;28;20470;-64
2023/04/10 02:47:06;;;;;;;3.40;2.55;;;;;;;14.98;38.37;101739.75;4937189;28;20043;-64
2023/04/10 02:49:33;;;;;;;5.80;3.00;;;;;;;14.97;39.52;101746.13;4921506;28;20044;-64
2023/04/10 02:51:58;;;;;;;5.93;3.00;;;;;;;14.96;38.24;101748.97;4954353;28;20109;-64
2023/04/10 02:54:24;;;;;;;6.13;3.08;;;;;;;14.92;38.85;101737.59;4969580;28;20058;-64
2023/04/10 02:56:49;;;;;;;3.80;2.50;;;;;;;14.90;38.43;101727.91;4953163;28;20078;-64
2023/04/10 02:59:15;;;;;;;5.43;2.90;;;;;;;14.88;38.18;101740.69;4952665;28;20515;-64
2023/04/10 03:01:40;;;;;;;5.47;2.75;;;;;;;14.83;39.62;101732.13;4952994;28;20044;-64
2023/04/10 03:04:06;;;;;;;5.47;2.75;;;;;;;14.80;38.28;101735.94;4969056;28;20031;-65
2023/04/10 03:06:33;;;;;;;5.97;2.92;;;;;;;14.76;38.30;101730.97;4937573;28;20038;-64
2023/04/10 03:08:58;;;;;;;2.72;1.90;;;;;;;14.72;39.32;101719.59;4953205;28;20093;-64
2023/04/10 03:11:23;;;;;;;5.30;2.83;;;;;;;14.71;38.95;101727.84;4970285;28;20047;-64
2023/04/10 03:13:49;;;;;;;2.13;1.92;;;;;;;14.68;38.30;101722.69;4958482;28;20027;-64
2023/04/10 03:16:17;;;;;;;6.07;2.72;;;;;;;14.67;38.85;101731.78;4958510;28;20395;-64
2023/04/10 03:18:42;;;;;;;5.82;2.97;;;;;;;14.64;38.26;101721.25;4955401;28;20031;-64
2023/04/10 03:21:08;;;;;;;3.03;2.30;;;;;;;14.63;39.26;101727.66;4953974;28;20030;-64
2023/04/10 03:23:33;;;;;;;6.25;2.70;;;;;;;14.61;38.28;101721.50;4922816;29;20433;-64
2023/04/10 03:25:58;;;;;;;4.20;2.50;;;;;;;14.56;39.14;101703.91;4952766;28;20055;-64
2023/04/10 03:28:24;;;;;;;4.90;2.90;;;;;;;14.57;39.75;101719.06;4952813;28;20054;-64
2023/04/10 03:30:49;;;;;;;3.88;2.20;;;;;;;14.53;38.65;101708.69;4953718;28;20114;-64
2023/04/10 03:33:15;;;;;;;5.57;2.95;;;;;;;14.50;39.92;101701.75;4936862;28;20020;-64
2023/04/10 03:35:41;;;;;;;4.97;2.78;;;;;;;14.47;38.76;101715.47;4952480;28;20039;-64
2023/04/10 03:38:06;;;;;;;6.20;3.00;;;;;;;14.41;39.61;101702.53;4952485;28;20039;-64
2023/04/10 03:40:33;;;;;;;4.32;2.53;;;;;;;14.41;39.79;101705.22;4951378;28;20568;-64
2023/04/10 03:42:59;;;;;;;7.40;3.15;;;;;;;14.41;38.71;101704.38;4936465;28;20035;-65
2023/04/10 03:45:25;;;;;;;4.97;2.88;;;;;;;14.39;38.81;101700.94;4952934;29;20031;-64
2023/04/10 03:47:52;;;;;;;12.98;3.65;;;;;;;14.38;40.02;101700.09;4953947;28;20038;-64
2023/04/10 03:50:18;;;;;;;4.80;2.72;;;;;;;14.37;39.82;101706.50;4936751;29;20499;-64
2023/04/10 03:52:43;;;;;;;5.35;3.15;;;;;;;14.37;38.64;101706.50;4953542;28;20035;-64
2023/04/10 03:55:08;;;;;;;5.70;2.97;;;;;;;14.38;39.70;101700.09;4934330;28;20386;-64
2023/04/10 03:57:34;;;;;;;7.00;3.40;;;;;;;14.41;38.68;101694.44;4935152;29;20031;-64
2023/04/10 03:59:59;;;;;;;5.00;2.83;;;;;;;14.43;40.04;101699.72;4917340;28;20040;-64
2023/04/10 04:02:25;;;;;;;6.30;2.85;;;;;;;14.42;38.78;101701.56;4933218;28;20063;-64
2023/04/10 04:04:51;;;;;;;5.60;3.13;;;;;;;14.39;39.94;101696.41;4933251;28;20056;-64
2023/04/10 04:07:17;;;;;;;4.47;2.70;;;;;;;14.31;39.88;101682.72;4933553;28;20505;-64
2023/04/10 04:09:42;;;;;;;4.35;2.92;;;;;;;14.30;39.95;101693.63;4933170;28;20541;-64
2023/04/10 04:12:07;;;;;;;6.55;2.40;;;;;;;14.27;38.75;101686.66;4935330;29;20031;-64
2023/04/10 04:14:33;;;;;;;3.90;2.00;;;;;;;14.22;40.24;101698.81;4919406;28;20562;-63
2023/04/10 04:16:59;;;;;;;5.05;2.70;;;;;;;14.17;40.29;101696.53;4933964;29;20028;-64
2023/04/10 04:19:24;;;;;;;4.03;2.75;;;;;;;14.13;39.11;101695.06;4932412;28;20075;-64
2023/04/10 04:21:50;;;;;;;5.78;2.65;;;;;;;14.08;40.48;101696.44;4933137;28;20118;-63
2023/04/10 04:24:15;;;;;;;6.90;2.75;;;;;;;14.09;40.37;101690.06;4933551;28;20403;-64
2023/04/10 04:26:41;;;;;;;4.38;2.40;;;;;;;14.04;40.10;101698.56;4933194;28;20051;-64
2023/04/10 04:29:06;;;;;;;3.85;2.30;;;;;;;14.01;40.07;101693.44;4933046;28;20040;-64
2023/04/10 04:31:31;;;;;;;4.15;2.33;;;;;;;13.96;39.33;101692.94;4917742;28;20043;-64
2023/04/10 04:33:58;;;;;;;3.60;1.80;;;;;;;13.93;40.46;101687.84;4901432;28;20441;-65
2023/04/10 04:36:23;;;;;;;7.18;2.63;;;;;;;13.86;39.33;101686.63;4935098;29;20031;-64
2023/04/10 04:38:49;;;;;;;4.90;2.40;;;;;;;13.84;40.22;101683.22;4901653;28;20032;-64
2023/04/10 04:41:14;;;;;;;6.53;2.30;;;;;;;13.80;40.32;101676.38;4932504;28;20043;-64
2023/04/10 04:43:40;;;;;;;5.20;3.13;;;;;;;13.80;40.51;101673.69;4948389;28;20407;-64
2023/04/10 04:46:05;;;;;;;4.28;2.65;;;;;;;13.79;39.21;101677.38;4932691;28;20039;-64
2023/04/10 04:48:31;;;;;;;7.20;3.13;;;;;;;13.78;40.02;101675.66;4932845;28;20035;-64
2023/04/10 04:50:56;;;;;;;6.45;2.88;;;;;;;13.76;39.64;101681.16;4932197;28;20514;-64
2023/04/10 04:53:22;;;;;;;6.38;2.92;;;;;;;13.75;39.65;101682.16;4916718;28;20038;-64
2023/04/10 04:55:47;;;;;;;4.65;2.88;;;;;;;13.75;40.70;101681.31;4916438;28;20137;-64
2023/04/10 04:58:12;;;;;;;5.40;2.67;;;;;;;13.75;39.71;101684.00;4916625;28;20034;-64
2023/04/10 05:00:38;;;;;;;5.15;2.63;;;;;;;13.73;40.04;101681.44;4901488;28;20115;-64
2023/04/10 05:03:05;;;;;;;4.43;2.90;;;;;;;13.71;39.56;101680.69;4934247;28;20039;-64
2023/04/10 05:05:30;;;;;;;3.72;2.45;;;;;;;13.70;40.30;101676.31;4932437;28;20043;-64
2023/04/10 05:07:55;;;;;;;6.75;3.17;;;;;;;13.71;40.55;101677.13;4948326;28;20035;-64
2023/04/10 05:10:21;;;;;;;5.38;2.55;;;;;;;13.70;40.82;101680.84;4933874;28;20054;-64
2023/04/10 05:12:46;;;;;;;6.40;2.45;;;;;;;13.70;39.77;101680.84;4932721;28;20406;-63
2023/04/10 05:15:12;;;;;;;3.22;2.17;;;;;;;13.70;39.69;101687.09;4932976;28;20038;-64
2023/04/10 05:17:37;;;;;;;7.13;2.80;;;;;;;13.70;40.16;101670.94;4933546;28;20036;-64
2023/04/10 05:20:03;;;;;;;6.75;2.55;;;;;;;13.71;39.85;101660.97;4931978;29;20454;-64
2023/04/10 05:22:29;;;;;;;4.50;2.30;;;;;;;13.76;40.39;101670.38;4933098;28;20059;-64
2023/04/10 05:24:55;;;;;;;4.53;2.40;;;;;;;13.82;40.00;101671.72;4947954;28;20063;-64
2023/04/10 05:27:21;;;;;;;4.70;2.63;;;;;;;13.88;40.17;101663.13;4948133;28;20077;-64
2023/04/10 05:29:46;;;;;;;4.22;2.78;;;;;;;13.91;39.73;101663.72;4931749;28;20038;-64
2023/04/10 05:32:12;;;;;;;4.10;2.50;;;;;;;13.96;39.98;101656.09;4931837;28;20032;-64
2023/04/10 05:34:38;;;;;;;4.93;2.60;;;;;;;14.04;39.70;101658.16;4931915;28;20081;-64
2023/04/10 05:37:03;;;;;;;4.63;2.70;;;;;;;14.13;41.01;101654.66;4931838;28;20430;-64
2023/04/10 05:39:29;;;;;;;6.32;2.97;;;;;;;14.16;40.32;101648.13;4931792;28;20028;-64
2023/04/10 05:41:55;;;;;;;7.75;2.80;;;;;;;14.24;40.23;101649.19;4931577;29;20400;-65
2023/04/10 05:44:21;;;;;;;4.45;2.30;;;;;;;14.36;40.42;101653.56;4931564;29;20123;-64
2023/04/10 05:46:46;;;;;;;3.40;2.42;;;;;;;14.44;39.98;101642.97;4931704;29;20122;-64
2023/04/10 05:49:12;;;;;;;5.05;2.50;;;;;;;14.57;40.06;101630.09;4933328;28;20395;-64
2023/04/10 05:51:37;;;;;;;4.35;2.20;;;;;;;14.71;40.98;101636.13;4916478;29;20055;-64
2023/04/10 05:54:03;;;;;;;4.75;2.50;;;;;;;14.88;40.16;101649.81;4915883;28;20491;-64
2023/04/10 05:56:28;;;;;;;6.05;2.25;;;;;;;15.02;40.05;101651.28;4915553;28;20035;-64
2023/04/10 05:58:53;;;;;;;4.57;3.05;;;;;;;15.20;39.16;101649.63;4931409;28;20063;-64
2023/04/10 06:01:19;;;;;;;9.52;2.70;;;;;;;15.35;40.13;101650.94;4931380;28;20500;-64
2023/04/10 06:03:44;;;;;;;6.22;2.92;;;;;;;15.49;40.00;101653.28;4933657;28;20174;-64
2023/04/10 06:06:10;;;;;;;4.38;2.88;;;;;;;15.57;40.11;101642.63;4935165;28;20059;-64
2023/04/10 06:08:35;;;;;;;4.22;2.17;;;;;;;15.70;40.28;101653.97;4918984;28;20035;-64
2023/04/10 06:11:01;;;;;;;4.25;2.45;;;;;;;15.82;39.25;101643.03;4934705;28;20039;-64
2023/04/10 06:13:26;;;;;;;5.32;2.67;;;;;;;15.94;40.13;101644.59;4951024;28;20046;-64
2023/04/10 06:15:52;;;;;;;3.55;2.38;;;;;;;16.11;39.36;101649.25;4954637;28;20042;-65
2023/04/10 06:18:17;;;;;;;3.95;3.00;;;;;;;16.21;39.43;101658.22;4954309;29;20045;-64
2023/04/10 06:20:42;;;;;;;6.13;3.03;;;;;;;16.29;40.26;101650.22;4953432;28;20031;-65
2023/04/10 06:23:08;;;;;;;4.00;2.70;;;;;;;16.41;40.65;101643.66;4955032;28;20035;-64
2023/04/10 06:25:33;;;;;;;8.35;3.10;;;;;;;16.50;40.51;101653.56;4953964;28;20112;-64
2023/04/10 06:27:59;;;;;;;5.60;3.05;;;;;;;16.55;39.34;101635.09;4955020;28;20031;-65
2023/04/10 06:30:25;;;;;;;5.22;2.83;;;;;;;16.70;40.22;101641.72;4954229;28;20027;-64
2023/04/10 06:32:52;;;;;;;5.28;3.40;;;;;;;16.83;40.03;101639.50;4938242;28;20130;-64
2023/04/10 06:35:17;;;;;;;4.78;2.78;;;;;;;16.94;40.01;101632.22;4937694;29;20040;-64
2023/04/10 06:37:43;;;;;;;5.68;3.25;;;;;;;17.07;40.10;101632.69;4953530;28;20039;-67
2023/04/10 06:40:10;;;;;;;5.05;3.17;;;;;;;17.23;40.49;101631.03;4937648;28;20059;-65
2023/04/10 06:42:36;;;;;;;3.60;2.58;;;;;;;17.36;40.35;101636.09;4938408;28;20035;-66
2023/04/10 06:45:02;;;;;;;8.70;3.88;;;;;;;17.52;40.57;101636.25;4953554;28;20106;-67
2023/04/10 06:47:28;;;;;;;6.35;3.13;;;;;;;17.68;39.53;101633.72;4953407;28;20035;-66
2023/04/10 06:49:53;;;;;;;3.10;2.65;;;;;;;17.81;39.54;101620.59;4953930;28;20101;-67
2023/04/10 06:52:19;;;;;;;6.75;3.42;;;;;;;18.01;40.07;101627.56;4937495;29;20434;-66
2023/04/10 06:54:44;;;;;;;4.85;2.72;;;;;;;18.20;39.81;101622.97;4953749;28;20027;-66
2023/04/10 06:57:10;;;;;;;5.70;3.35;;;;;;;18.38;39.00;101623.75;4937722;29;20050;-67
2023/04/10 06:59:35;;;;;;;5.43;3.65;;;;;;;18.60;39.76;101615.09;4936842;28;20078;-67
2023/04/10 07:02:02;;;;;;;6.32;3.50;;;;;;;18.80;39.13;101615.69;4953063;28;20044;-67
2023/04/10 07:04:27;;;;;;;5.60;3.17;;;;;;;18.99;38.61;101613.56;4953535;28;20455;-66
2023/04/10 07:06:54;;;;;;;3.83;2.63;;;;;;;19.14;39.04;101609.22;4953965;28;20028;-67
2023/04/10 07:09:19;;;;;;;4.55;2.67;;;;;;;19.24;39.11;101600.03;4954737;28;20035;-66
2023/04/10 07:11:45;;;;;;;3.78;3.05;;;;;;;19.36;38.54;101599.56;4937282;28;20495;-67
2023/04/10 07:14:10;;;;;;;5.13;3.15;;;;;;;19.52;38.62;101598.75;4951793;28;20122;-66
2023/04/10 07:16:36;;;;;;;4.68;3.40;;;;;;;19.68;38.17;101588.75;4953123;28;20039;-66
2023/04/10 07:19:01;;;;;;;6.38;3.63;;;;;;;19.84;38.00;101582.47;4952988;28;20444;-67
2023/04/10 07:21:27;;;;;;;5.20;3.33;;;;;;;20.02;38.29;101591.28;4954476;28;20423;-66
2023/04/10 07:23:53;;;;;;;3.63;2.90;;;;;;;20.11;37.55;101578.53;4936747;28;20046;-66
2023/04/10 07:26:18;;;;;;;3.78;2.72;;;;;;;20.16;37.38;101587.88;4936890;28;20525;-67
2023/04/10 07:28:43;;;;;;;6.63;3.05;;;;;;;20.15;37.47;101571.72;4952752;28;20399;-67
2023/04/10 07:31:10;;;;;;;4.35;3.00;;;;;;;20.20;37.54;101572.91;4936658;28;20047;-67
2023/04/10 07:33:36;;;;;;;4.72;2.92;;;;;;;20.22;37.21;101564.56;4953494;28;20479;-67
2023/04/10 07:36:02;;;;;;;6.80;2.75;;;;;;;20.23;37.47;101569.84;4955058;28;20407;-66
2023/04/10 07:38:27;;;;;;;6.40;2.90;;;;;;;20.27;37.16;101568.47;4956216;28;20038;-67
2023/04/10 07:40:59;;;;;;;5.05;3.60;;;;;;;20.31;37.51;101563.56;4969821;28;20043;-67
2023/04/10 07:43:25;;;;;;;3.70;2.67;;;;;;;20.32;36.96;101555.19;4953725;28;20523;-66
2023/04/10 07:45:50;;;;;;;6.93;2.97;;;;;;;20.38;37.44;101556.38;4952243;28;20059;-67
2023/04/10 07:48:16;;;;;;;4.72;3.10;;;;;;;20.46;36.54;101552.81;4952743;28;20024;-67
2023/04/10 07:50:41;;;;;;;5.40;3.45;;;;;;;20.51;36.64;101556.69;4952389;28;20032;-67
2023/04/10 07:53:07;;;;;;;6.20;3.17;;;;;;;20.57;37.07;101541.53;4953379;28;20498;-67
2023/04/10 07:55:43;;;;;;;5.13;2.83;;;;;;;20.64;36.55;101543.34;4953499;28;20038;-67
2023/04/10 07:58:09;;;;;;;5.07;2.95;;;;;;;20.72;36.38;101534.28;4952008;28;20433;-67
2023/04/10 08:00:35;;;;;;;4.72;3.42;;;;;;;20.80;36.65;101526.06;4952368;29;20058;-67
2023/04/10 08:03:00;;;;;;;6.05;3.08;;;;;;;20.87;36.71;101527.06;4952286;28;20031;-67
2023/04/10 08:05:26;;;;;;;4.10;2.75;;;;;;;20.94;36.40;101522.59;4952287;28;20036;-67
2023/04/10 08:07:51;;;;;;;4.28;2.85;;;;;;;20.98;35.93;101520.38;4952155;28;20043;-67
2023/04/10 08:10:17;;;;;;;4.25;2.78;;;;;;;21.02;36.05;101517.09;4951999;28;20050;-67
2023/04/10 08:12:42;;;;;;;6.00;2.75;;;;;;;21.07;35.93;101513.84;4951982;28;20038;-67
2023/04/10 08:15:08;;;;;;;4.72;2.92;;;;;;;21.12;36.28;101503.28;4936509;28;20023;-67
2023/04/10 08:17:33;;;;;;;4.13;2.90;;;;;;;21.28;35.72;101498.53;4936184;28;20062;-67
2023/04/10 08:19:59;;;;;;;5.35;3.17;;;;;;;21.57;35.63;101500.53;4968170;28;20114;-67
2023/04/10 08:22:24;;;;;;;4.43;2.63;;;;;;;21.91;35.24;101500.06;4953116;28;20046;-67
2023/04/10 08:24:50;;;;;;;4.93;3.15;;;;;;;22.35;35.05;101491.88;4951599;28;20030;-67
2023/04/10 08:27:15;;;;;;;5.93;2.47;;;;;;;22.81;34.75;101487.03;4936057;28;20146;-67
2023/04/10 08:29:41;;;;;;;4.30;2.72;;;;;;;23.09;34.25;101477.88;4920114;28;20062;-67
2023/04/10 08:32:07;;;;;;;3.88;2.53;;;;;;;23.31;34.08;101481.44;4935723;28;20055;-67
2023/04/10 08:34:32;;;;;;;3.83;2.40;;;;;;;23.47;33.38;101483.94;4951656;28;20045;-67
2023/04/10 08:36:58;;;;;;;4.22;2.60;;;;;;;23.56;33.76;101466.31;4951655;28;20027;-68
2023/04/10 08:39:23;;;;;;;5.20;2.50;;;;;;;23.61;33.43;101465.75;4936118;28;20087;-68
2023/04/10 08:41:49;;;;;;;2.85;2.10;;;;;;;23.59;33.83;101465.94;4935672;29;20036;-67
2023/04/10 08:44:14;;;;;;;4.88;2.60;;;;;;;23.52;33.87;101476.00;4951608;28;20055;-67
2023/04/10 08:46:44;;;;;;;3.83;2.50;;;;;;;23.44;33.73;101473.41;4951718;28;20037;-68
2023/04/10 08:49:17;;;;;;;3.90;2.85;;;;;;;23.34;34.10;101472.84;4951647;28;20561;-68
2023/04/10 08:51:50;;;;;;;4.00;2.83;;;;;;;23.30;33.70;101474.28;4951483;28;20035;-68
2023/04/10 08:54:22;;;;;;;3.60;2.60;;;;;;;23.30;33.20;101481.63;4951956;28;20479;-68
2023/04/10 08:56:50;;;;;;;4.63;2.33;;;;;;;23.29;33.81;101475.31;4951767;28;20035;-68
2023/04/10 08:59:16;;;;;;;3.45;1.98;;;;;;;23.31;33.32;101484.16;4935556;28;20047;-68
2023/04/10 09:01:41;;;;;;;3.08;2.17;;;;;;;23.33;32.93;101482.09;4935401;28;20077;-67
2023/04/10 09:04:07;;;;;;;3.70;2.53;;;;;;;23.28;33.82;101479.13;4967217;28;20035;-67
2023/04/10 09:06:32;;;;;;;2.92;2.38;;;;;;;23.24;33.03;101477.81;4951767;28;20509;-68
2023/04/10 09:09:00;;;;;;;4.85;2.63;;;;;;;23.21;33.55;101464.53;4967193;28;20174;-68
2023/04/10 09:11:51;;;;;;;3.53;2.50;;;;;;;23.18;32.73;101473.97;4951253;28;20495;-68
2023/04/10 09:14:20;;;;;;;3.28;2.50;;;;;;;23.10;33.68;101486.91;4950954;28;20031;-68
2023/04/10 09:16:46;;;;;;;2.45;2.25;;;;;;;23.04;32.90;101466.66;4952315;28;20190;-67
2023/04/10 09:19:11;;;;;;;3.17;2.30;;;;;;;23.07;32.89;101470.91;4935023;28;20130;-68
2023/04/10 09:21:37;;;;;;;2.70;2.08;;;;;;;23.15;32.86;101468.88;4951317;29;20042;-68
2023/04/10 09:24:03;;;;;;;5.60;2.80;;;;;;;23.27;32.43;101471.09;4919076;28;20047;-68
2023/04/10 09:26:30;;;;;;;3.90;2.22;;;;;;;23.29;32.71;101469.84;4935523;28;20027;-67
2023/04/10 09:29:04;;;;;;;3.90;2.55;;;;;;;23.28;33.21;101457.25;4935154;29;20028;-68
2023/04/10 09:31:29;;;;;;;3.28;2.40;;;;;;;23.28;32.32;101457.25;4935071;29;20062;-68
2023/04/10 09:34:15;;;;;;;4.05;2.35;;;;;;;23.27;32.46;101461.00;4952567;28;20463;-68
2023/04/10 09:36:55;;;;;;;5.15;2.03;;;;;;;23.25;31.91;101452.16;4950742;28;20118;-68
2023/04/10 09:39:21;;;;;;;3.65;2.42;;;;;;;23.26;32.47;101453.84;4951035;29;20066;-67
2023/04/10 09:41:51;;;;;;;4.28;2.10;;;;;;;23.25;32.24;101452.16;4951960;28;20043;-67
2023/04/10 09:44:19;;;;;;;2.75;1.85;;;;;;;23.24;32.72;101449.59;4950734;28;20034;-67
2023/04/10 09:46:45;;;;;;;3.85;2.25;;;;;;;23.26;32.12;101437.44;4950546;28;20027;-67
2023/04/10 09:49:11;;;;;;;3.20;2.40;;;;;;;23.26;32.46;101437.44;4952323;28;20118;-66
2023/04/10 09:51:38;;;;;;;3.58;2.17;;;;;;;23.30;32.96;101437.91;4935865;29;20605;-68
2023/04/10 09:54:03;;;;;;;7.95;2.33;;;;;;;23.28;32.16;101424.44;4919375;28;20044;-69
2023/04/10 09:56:29;;;;;;;2.67;2.20;;;;;;;23.28;31.93;101423.59;4951786;28;20042;-69
2023/04/10 09:58:57;;;;;;;3.90;1.92;;;;;;;23.24;31.92;101419.53;4934325;28;20051;-67
2023/04/10 10:01:25;;;;;;;3.63;2.22;;;;;;;23.17;32.24;101408.56;4934404;29;20041;-67
2023/04/10 10:03:55;;;;;;;2.92;1.98;;;;;;;23.10;32.31;101402.19;4950382;28;20030;-67
2023/04/10 10:06:22;;;;;;;2.60;2.00;;;;;;;23.03;33.02;101409.50;4934727;28;20035;-65
2023/04/10 10:08:48;;;;;;;3.38;2.03;;;;;;;22.97;32.31;101382.94;4947502;28;20115;-67
2023/04/10 10:11:17;;;;;;;4.38;2.13;;;;;;;22.93;32.10;101384.34;4931078;28;20106;-67
2023/04/10 10:13:51;;;;;;;4.40;2.15;;;;;;;22.93;32.10;101377.00;4931292;28;20040;-67
2023/04/10 10:16:38;;;;;;;3.58;2.03;;;;;;;22.94;32.91;101386.91;4931444;29;20511;-67
2023/04/10 10:19:03;;;;;;;3.00;1.98;;;;;;;22.91;33.01;101379.09;4944679;28;20039;-67
2023/04/10 10:21:29;;;;;;;3.85;2.20;;;;;;;22.92;32.11;101369.84;4931574;29;20498;-67
2023/04/10 10:23:57;;;;;;;3.05;2.65;;;;;;;22.93;32.69;101365.22;4918499;28;20138;-67
2023/04/10 10:26:23;;;;;;;2.00;1.67;;;;;;;22.91;32.50;101384.56;4966360;28;20040;-67
2023/04/10 10:28:51;;;;;;;3.42;1.92;;;;;;;22.97;31.93;101380.19;4934273;29;20038;-67
2023/04/10 10:31:18;;;;;;;3.22;1.90;;;;;;;23.04;32.05;101378.34;4966299;28;20514;-67
2023/04/10 10:33:46;;;;;;;3.30;1.90;;;;;;;23.09;32.19;101367.69;4966517;28;20035;-67
2023/04/10 10:36:13;;;;;;;3.20;2.20;;;;;;;23.22;31.81;101367.81;4952134;28;20032;-67
2023/04/10 10:38:44;;;;;;;2.67;1.75;;;;;;;23.30;31.75;101355.88;4933932;29;20040;-67
2023/04/10 10:41:28;;;;;;;3.53;2.35;;;;;;;23.46;32.13;101348.22;4934291;29;20039;-67
2023/04/10 10:44:11;;;;;;;9.18;2.40;;;;;;;23.60;32.24;101341.78;4954381;28;20031;-67
2023/04/10 10:46:44;;;;;;;3.30;2.10;;;;;;;23.69;31.63;101331.53;4950235;28;20037;-67
2023/04/10 10:49:09;;;;;;;2.85;2.03;;;;;;;23.78;31.82;101331.16;4967569;28;20077;-67
2023/04/10 10:51:50;;;;;;;2.60;2.08;;;;;;;23.86;31.75;101323.81;4937673;28;20434;-67
2023/04/10 10:54:32;;;;;;;2.40;1.90;;;;;;;23.91;31.38;101313.97;4930427;28;20515;-67
2023/04/10 10:56:58;;;;;;;2.13;1.83;;;;;;;23.98;32.00;101323.03;4969353;28;20085;-67
2023/04/10 10:59:42;;;;;;;2.38;1.80;;;;;;;24.17;31.84;101332.41;4954285;28;20374;-67
2023/04/10 11:02:15;;;;;;;2.03;1.83;;;;;;;24.25;31.79;101313.91;4953316;28;20047;-68
2023/04/10 11:04:45;;;;;;;2.55;1.60;;;;;;;24.34;30.85;101311.81;4953410;28;20054;-67
2023/04/10 11:07:10;;;;;;;2.70;1.80;;;;;;;24.42;31.23;101314.38;4937607;28;20114;-68
2023/04/10 11:09:50;;;;;;;2.95;1.83;;;;;;;24.48;31.01;101310.81;4953469;29;20114;-67
2023/04/10 11:12:28;;;;;;;3.17;1.90;;;;;;;24.56;31.63;101310.59;4953257;28;20047;-68
2023/04/10 11:14:59;;;;;;;1.80;1.65;;;;;;;24.60;31.24;101292.66;4953046;28;20035;-68
2023/04/10 11:17:49;;;;;;;2.40;1.77;;;;;;;24.60;30.44;101294.56;4954031;28;20057;-68
2023/04/10 11:20:20;;;;;;;2.85;1.90;;;;;;;24.62;30.94;101298.78;4952574;28;20031;-67
2023/04/10 11:23:09;;;;;;;2.15;1.83;;;;;;;24.90;30.69;101279.44;4953091;28;20055;-68
2023/04/10 11:25:49;;;;;;;2.03;1.67;;;;;;;25.22;30.45;101283.19;4952859;28;20055;-68